sensor_id;sensor_type;location;lat;lon;timestamp;pressure;altitude;pressure_sealevel;temperature;humidity
56789;BME280;42657;51.650;17.780;2022-12-24T00:01:32;98927.27;;;6.52;87.61
56789;BME280;42657;51.650;17.780;2022-12-24T00:04:33;98920.52;;;6.56;87.51
56789;BME280;42657;51.650;17.780;2022-12-24T00:07:35;98920.75;;;6.57;87.53
56789;BME280;42657;51.650;17.780;2022-12-24T00:10:37;98924.39;;;6.56;87.52
56789;BME280;42657;51.650;17.780;2022-12-24T00:13:38;98927.81;;;6.57;87.28
56789;BME280;42657;51.650;17.780;2022-12-24T00:16:40;98928.30;;;6.52;87.45
56789;BME280;42657;51.650;17.780;2022-12-24T00:19:42;98931.02;;;6.55;87.43
56789;BME280;42657;51.650;17.780;2022-12-24T00:22:43;98939.81;;;6.58;87.53
56789;BME280;42657;51.650;17.780;2022-12-24T00:25:45;98944.89;;;6.54;87.43
56789;BME280;42657;51.650;17.780;2022-12-24T00:28:47;98950.19;;;6.56;87.45
56789;BME280;42657;51.650;17.780;2022-12-24T00:31:49;98947.83;;;6.56;87.43
56789;BME280;42657;51.650;17.780;2022-12-24T00:34:50;98942.69;;;6.58;87.48
56789;BME280;42657;51.650;17.780;2022-12-24T00:37:52;98936.67;;;6.63;87.57
56789;BME280;42657;51.650;17.780;2022-12-24T00:41:01;98931.69;;;6.63;87.45
56789;BME280;42657;51.650;17.780;2022-12-24T00:44:05;98933.08;;;6.66;87.52
56789;BME280;42657;51.650;17.780;2022-12-24T00:47:07;98934.12;;;6.70;87.59
56789;BME280;42657;51.650;17.780;2022-12-24T00:50:09;98936.52;;;6.74;87.54
56789;BME280;42657;51.650;17.780;2022-12-24T00:53:10;98939.70;;;6.77;87.53
56789;BME280;42657;51.650;17.780;2022-12-24T00:56:12;98940.11;;;6.75;87.25
56789;BME280;42657;51.650;17.780;2022-12-24T00:59:13;98943.90;;;6.70;87.31
56789;BME280;42657;51.650;17.780;2022-12-24T01:02:15;98945.02;;;6.68;87.35
56789;BME280;42657;51.650;17.780;2022-12-24T01:05:17;98945.68;;;6.74;87.39
56789;BME280;42657;51.650;17.780;2022-12-24T01:08:18;98945.26;;;6.76;87.39
56789;BME280;42657;51.650;17.780;2022-12-24T01:11:20;98943.88;;;6.78;87.35
56789;BME280;42657;51.650;17.780;2022-12-24T01:14:21;98943.17;;;6.78;87.42
56789;BME280;42657;51.650;17.780;2022-12-24T01:17:23;98939.20;;;6.76;87.32
56789;BME280;42657;51.650;17.780;2022-12-24T01:20:24;98931.71;;;6.75;87.27
56789;BME280;42657;51.650;17.780;2022-12-24T01:23:26;98930.84;;;6.72;87.19
56789;BME280;42657;51.650;17.780;2022-12-24T01:26:28;98928.86;;;6.70;87.25
56789;BME280;42657;51.650;17.780;2022-12-24T01:29:30;98917.78;;;6.70;87.28
56789;BME280;42657;51.650;17.780;2022-12-24T01:32:31;98916.13;;;6.69;87.15
56789;BME280;42657;51.650;17.780;2022-12-24T01:35:33;98914.63;;;6.67;87.09
56789;BME280;42657;51.650;17.780;2022-12-24T01:38:34;98913.65;;;6.66;87.22
56789;BME280;42657;51.650;17.780;2022-12-24T01:41:36;98916.39;;;6.67;87.37
56789;BME280;42657;51.650;17.780;2022-12-24T01:44:43;98911.67;;;6.65;87.13
56789;BME280;42657;51.650;17.780;2022-12-24T01:47:47;98910.91;;;6.63;87.30
56789;BME280;42657;51.650;17.780;2022-12-24T01:51:16;98912.63;;;6.64;87.22
56789;BME280;42657;51.650;17.780;2022-12-24T01:54:18;98914.61;;;6.64;87.33
56789;BME280;42657;51.650;17.780;2022-12-24T01:57:22;98921.77;;;6.62;87.10
56789;BME280;42657;51.650;17.780;2022-12-24T02:00:25;98919.80;;;6.65;87.11
56789;BME280;42657;51.650;17.780;2022-12-24T02:03:26;98915.05;;;6.65;86.99
56789;BME280;42657;51.650;17.780;2022-12-24T02:06:28;98919.91;;;6.59;86.96
56789;BME280;42657;51.650;17.780;2022-12-24T02:09:31;98912.73;;;6.59;87.15
56789;BME280;42657;51.650;17.780;2022-12-24T02:12:34;98915.93;;;6.59;87.15
56789;BME280;42657;51.650;17.780;2022-12-24T02:26:30;98912.12;;;6.51;87.00
56789;BME280;42657;51.650;17.780;2022-12-24T02:36:15;98914.58;;;6.54;87.04
56789;BME280;42657;51.650;17.780;2022-12-24T02:39:41;98919.09;;;6.57;87.05
56789;BME280;42657;51.650;17.780;2022-12-24T02:42:50;98917.05;;;6.59;87.15
56789;BME280;42657;51.650;17.780;2022-12-24T02:45:58;98916.74;;;6.60;87.09
56789;BME280;42657;51.650;17.780;2022-12-24T02:49:01;98916.45;;;6.56;86.89
56789;BME280;42657;51.650;17.780;2022-12-24T02:52:04;98914.44;;;6.57;87.09
56789;BME280;42657;51.650;17.780;2022-12-24T03:06:00;98919.69;;;6.42;87.03
56789;BME280;42657;51.650;17.780;2022-12-24T03:12:19;98913.77;;;6.31;86.96
56789;BME280;42657;51.650;17.780;2022-12-24T03:15:25;98915.09;;;6.28;87.04
56789;BME280;42657;51.650;17.780;2022-12-24T03:18:27;98913.38;;;6.25;87.10
56789;BME280;42657;51.650;17.780;2022-12-24T03:21:33;98907.27;;;6.25;87.21
56789;BME280;42657;51.650;17.780;2022-12-24T03:24:36;98913.58;;;6.24;86.98
56789;BME280;42657;51.650;17.780;2022-12-24T03:27:38;98917.77;;;6.27;87.22
56789;BME280;42657;51.650;17.780;2022-12-24T03:30:42;98914.55;;;6.28;87.19
56789;BME280;42657;51.650;17.780;2022-12-24T03:33:45;98912.78;;;6.25;87.12
56789;BME280;42657;51.650;17.780;2022-12-24T03:36:48;98922.28;;;6.21;87.04
56789;BME280;42657;51.650;17.780;2022-12-24T03:39:50;98917.74;;;6.20;87.06
56789;BME280;42657;51.650;17.780;2022-12-24T03:42:52;98913.41;;;6.22;87.30
56789;BME280;42657;51.650;17.780;2022-12-24T03:45:53;98921.11;;;6.24;87.23
56789;BME280;42657;51.650;17.780;2022-12-24T03:48:55;98921.23;;;6.23;87.23
56789;BME280;42657;51.650;17.780;2022-12-24T03:51:56;98920.07;;;6.26;87.22
56789;BME280;42657;51.650;17.780;2022-12-24T03:54:58;98922.85;;;6.26;87.10
56789;BME280;42657;51.650;17.780;2022-12-24T03:57:59;98923.31;;;6.24;87.03
56789;BME280;42657;51.650;17.780;2022-12-24T04:01:03;98915.39;;;6.20;86.93
56789;BME280;42657;51.650;17.780;2022-12-24T04:04:05;98918.90;;;6.18;86.92
56789;BME280;42657;51.650;17.780;2022-12-24T04:07:06;98911.77;;;6.12;86.74
56789;BME280;42657;51.650;17.780;2022-12-24T04:10:09;98910.16;;;6.10;86.82
56789;BME280;42657;51.650;17.780;2022-12-24T04:13:11;98909.66;;;6.08;86.90
56789;BME280;42657;51.650;17.780;2022-12-24T04:16:14;98910.30;;;6.05;86.93
56789;BME280;42657;51.650;17.780;2022-12-24T04:19:16;98911.37;;;6.08;87.01
56789;BME280;42657;51.650;17.780;2022-12-24T04:22:17;98911.48;;;6.11;87.08
56789;BME280;42657;51.650;17.780;2022-12-24T04:25:19;98909.79;;;6.15;87.07
56789;BME280;42657;51.650;17.780;2022-12-24T04:28:20;98917.08;;;6.16;87.06
56789;BME280;42657;51.650;17.780;2022-12-24T04:31:22;98917.29;;;6.13;86.98
56789;BME280;42657;51.650;17.780;2022-12-24T04:34:23;98914.71;;;6.11;86.89
56789;BME280;42657;51.650;17.780;2022-12-24T04:37:25;98908.67;;;6.14;87.02
56789;BME280;42657;51.650;17.780;2022-12-24T04:40:26;98906.05;;;6.15;86.84
56789;BME280;42657;51.650;17.780;2022-12-24T04:43:29;98906.48;;;6.17;86.89
56789;BME280;42657;51.650;17.780;2022-12-24T04:46:30;98908.06;;;6.21;86.96
56789;BME280;42657;51.650;17.780;2022-12-24T04:49:32;98910.74;;;6.22;86.84
56789;BME280;42657;51.650;17.780;2022-12-24T04:52:33;98911.27;;;6.21;86.84
56789;BME280;42657;51.650;17.780;2022-12-24T04:55:35;98917.64;;;6.22;86.79
56789;BME280;42657;51.650;17.780;2022-12-24T04:58:37;98922.73;;;6.25;86.95
56789;BME280;42657;51.650;17.780;2022-12-24T05:01:38;98922.48;;;6.27;87.03
56789;BME280;42657;51.650;17.780;2022-12-24T05:04:40;98925.79;;;6.28;86.84
56789;BME280;42657;51.650;17.780;2022-12-24T05:07:42;98925.27;;;6.31;87.03
56789;BME280;42657;51.650;17.780;2022-12-24T05:10:43;98926.34;;;6.34;87.08
56789;BME280;42657;51.650;17.780;2022-12-24T05:13:45;98925.98;;;6.36;86.87
56789;BME280;42657;51.650;17.780;2022-12-24T05:16:46;98931.11;;;6.35;87.01
56789;BME280;42657;51.650;17.780;2022-12-24T05:19:48;98933.36;;;6.32;86.97
56789;BME280;42657;51.650;17.780;2022-12-24T05:22:49;98938.80;;;6.29;86.73
56789;BME280;42657;51.650;17.780;2022-12-24T05:25:51;98943.95;;;6.20;86.64
56789;BME280;42657;51.650;17.780;2022-12-24T05:28:55;98949.52;;;6.21;86.96
56789;BME280;42657;51.650;17.780;2022-12-24T05:31:57;98949.86;;;6.27;87.02
56789;BME280;42657;51.650;17.780;2022-12-24T05:34:58;98948.27;;;6.26;86.89
56789;BME280;42657;51.650;17.780;2022-12-24T05:38:00;98950.15;;;6.20;86.67
56789;BME280;42657;51.650;17.780;2022-12-24T05:41:02;98951.11;;;6.18;86.97
56789;BME280;42657;51.650;17.780;2022-12-24T05:44:04;98956.27;;;6.25;86.97
56789;BME280;42657;51.650;17.780;2022-12-24T05:47:05;98964.08;;;6.25;86.86
56789;BME280;42657;51.650;17.780;2022-12-24T05:50:08;98965.11;;;6.28;87.10
56789;BME280;42657;51.650;17.780;2022-12-24T05:53:09;98969.18;;;6.29;87.10
56789;BME280;42657;51.650;17.780;2022-12-24T05:56:14;98974.13;;;6.20;86.73
56789;BME280;42657;51.650;17.780;2022-12-24T05:59:17;98975.20;;;6.13;86.76
56789;BME280;42657;51.650;17.780;2022-12-24T06:02:18;98979.05;;;6.10;87.00
56789;BME280;42657;51.650;17.780;2022-12-24T06:05:20;98984.41;;;6.11;86.94
56789;BME280;42657;51.650;17.780;2022-12-24T06:08:21;98991.54;;;6.16;87.26
56789;BME280;42657;51.650;17.780;2022-12-24T06:11:25;98995.31;;;6.21;87.21
56789;BME280;42657;51.650;17.780;2022-12-24T06:14:27;99005.31;;;6.20;87.19
56789;BME280;42657;51.650;17.780;2022-12-24T06:17:28;99008.84;;;6.20;87.23
56789;BME280;42657;51.650;17.780;2022-12-24T06:20:30;99010.05;;;6.16;86.98
56789;BME280;42657;51.650;17.780;2022-12-24T06:23:34;99017.03;;;6.13;87.02
56789;BME280;42657;51.650;17.780;2022-12-24T06:26:36;99020.29;;;6.11;87.05
56789;BME280;42657;51.650;17.780;2022-12-24T06:29:38;99024.07;;;6.02;86.72
56789;BME280;42657;51.650;17.780;2022-12-24T06:32:39;99022.83;;;5.95;86.91
56789;BME280;42657;51.650;17.780;2022-12-24T06:35:41;99024.19;;;5.89;86.89
56789;BME280;42657;51.650;17.780;2022-12-24T06:38:43;99028.96;;;5.78;86.79
56789;BME280;42657;51.650;17.780;2022-12-24T06:41:45;99032.93;;;5.65;86.64
56789;BME280;42657;51.650;17.780;2022-12-24T06:44:46;99034.33;;;5.59;87.00
56789;BME280;42657;51.650;17.780;2022-12-24T06:47:48;99041.27;;;5.58;87.11
56789;BME280;42657;51.650;17.780;2022-12-24T06:50:49;99042.53;;;5.57;87.18
56789;BME280;42657;51.650;17.780;2022-12-24T06:53:51;99045.58;;;5.57;87.19
56789;BME280;42657;51.650;17.780;2022-12-24T06:56:53;99050.35;;;5.53;87.30
56789;BME280;42657;51.650;17.780;2022-12-24T06:59:54;99052.89;;;5.49;87.26
56789;BME280;42657;51.650;17.780;2022-12-24T07:02:56;99056.77;;;5.47;87.28
56789;BME280;42657;51.650;17.780;2022-12-24T07:05:58;99059.55;;;5.48;87.30
56789;BME280;42657;51.650;17.780;2022-12-24T07:09:00;99059.48;;;5.42;87.24
56789;BME280;42657;51.650;17.780;2022-12-24T07:12:01;99064.23;;;5.39;87.34
56789;BME280;42657;51.650;17.780;2022-12-24T07:15:03;99072.64;;;5.41;87.48
56789;BME280;42657;51.650;17.780;2022-12-24T07:18:05;99082.23;;;5.44;87.52
56789;BME280;42657;51.650;17.780;2022-12-24T07:21:07;99083.60;;;5.43;87.33
56789;BME280;42657;51.650;17.780;2022-12-24T07:24:09;99089.03;;;5.35;87.13
56789;BME280;42657;51.650;17.780;2022-12-24T07:27:11;99105.11;;;5.29;87.07
56789;BME280;42657;51.650;17.780;2022-12-24T07:30:13;99108.70;;;5.29;87.21
56789;BME280;42657;51.650;17.780;2022-12-24T07:33:14;99116.77;;;5.26;87.20
56789;BME280;42657;51.650;17.780;2022-12-24T07:36:20;99122.89;;;5.25;87.17
56789;BME280;42657;51.650;17.780;2022-12-24T07:39:22;99129.39;;;5.23;87.20
56789;BME280;42657;51.650;17.780;2022-12-24T07:42:23;99137.09;;;5.23;87.26
56789;BME280;42657;51.650;17.780;2022-12-24T07:45:25;99143.91;;;5.23;87.29
56789;BME280;42657;51.650;17.780;2022-12-24T07:48:28;99149.70;;;5.20;87.12
56789;BME280;42657;51.650;17.780;2022-12-24T07:51:30;99155.46;;;5.15;87.17
56789;BME280;42657;51.650;17.780;2022-12-24T07:54:32;99159.88;;;5.13;87.26
56789;BME280;42657;51.650;17.780;2022-12-24T07:57:33;99164.95;;;5.13;87.29
56789;BME280;42657;51.650;17.780;2022-12-24T08:00:36;99172.35;;;5.16;87.26
56789;BME280;42657;51.650;17.780;2022-12-24T08:03:38;99178.26;;;5.18;87.36
56789;BME280;42657;51.650;17.780;2022-12-24T08:06:39;99177.27;;;5.23;87.36
56789;BME280;42657;51.650;17.780;2022-12-24T08:09:41;99187.00;;;5.21;87.11
56789;BME280;42657;51.650;17.780;2022-12-24T08:12:42;99200.60;;;5.19;87.09
56789;BME280;42657;51.650;17.780;2022-12-24T08:15:44;99214.11;;;5.19;87.27
56789;BME280;42657;51.650;17.780;2022-12-24T08:18:46;99222.25;;;5.25;87.28
56789;BME280;42657;51.650;17.780;2022-12-24T08:21:48;99226.73;;;5.25;87.02
56789;BME280;42657;51.650;17.780;2022-12-24T08:24:49;99229.04;;;5.26;87.12
56789;BME280;42657;51.650;17.780;2022-12-24T08:27:51;99235.14;;;5.31;86.95
56789;BME280;42657;51.650;17.780;2022-12-24T08:30:53;99241.79;;;5.33;87.00
56789;BME280;42657;51.650;17.780;2022-12-24T08:33:55;99245.23;;;5.34;86.82
56789;BME280;42657;51.650;17.780;2022-12-24T08:36:57;99250.95;;;5.36;87.06
56789;BME280;42657;51.650;17.780;2022-12-24T08:39:58;99250.67;;;5.37;86.95
56789;BME280;42657;51.650;17.780;2022-12-24T08:43:01;99257.29;;;5.37;86.87
56789;BME280;42657;51.650;17.780;2022-12-24T08:46:04;99259.45;;;5.38;86.69
56789;BME280;42657;51.650;17.780;2022-12-24T08:49:06;99265.90;;;5.35;86.47
56789;BME280;42657;51.650;17.780;2022-12-24T08:52:07;99274.94;;;5.38;86.79
56789;BME280;42657;51.650;17.780;2022-12-24T08:55:09;99282.92;;;5.37;86.74
56789;BME280;42657;51.650;17.780;2022-12-24T08:58:10;99289.36;;;5.35;86.70
56789;BME280;42657;51.650;17.780;2022-12-24T09:01:14;99294.34;;;5.32;86.57
56789;BME280;42657;51.650;17.780;2022-12-24T09:04:16;99302.27;;;5.28;86.46
56789;BME280;42657;51.650;17.780;2022-12-24T09:07:18;99301.23;;;5.24;86.41
56789;BME280;42657;51.650;17.780;2022-12-24T09:10:20;99303.80;;;5.24;86.52
56789;BME280;42657;51.650;17.780;2022-12-24T09:13:21;99308.13;;;5.28;86.64
56789;BME280;42657;51.650;17.780;2022-12-24T09:16:23;99311.86;;;5.35;86.70
56789;BME280;42657;51.650;17.780;2022-12-24T09:19:26;99315.19;;;5.36;86.54
56789;BME280;42657;51.650;17.780;2022-12-24T09:22:28;99318.73;;;5.42;86.66
56789;BME280;42657;51.650;17.780;2022-12-24T09:25:29;99325.90;;;5.46;86.50
56789;BME280;42657;51.650;17.780;2022-12-24T09:28:31;99333.77;;;5.47;86.37
56789;BME280;42657;51.650;17.780;2022-12-24T09:31:32;99340.19;;;5.47;86.37
56789;BME280;42657;51.650;17.780;2022-12-24T09:34:35;99346.02;;;5.48;86.27
56789;BME280;42657;51.650;17.780;2022-12-24T09:37:37;99350.50;;;5.52;86.45
56789;BME280;42657;51.650;17.780;2022-12-24T09:40:39;99351.77;;;5.55;86.38
56789;BME280;42657;51.650;17.780;2022-12-24T09:43:45;99360.33;;;5.58;86.32
56789;BME280;42657;51.650;17.780;2022-12-24T09:46:49;99364.40;;;5.64;86.18
56789;BME280;42657;51.650;17.780;2022-12-24T09:49:55;99366.67;;;5.70;86.14
56789;BME280;42657;51.650;17.780;2022-12-24T09:53:02;99371.67;;;5.72;85.86
56789;BME280;42657;51.650;17.780;2022-12-24T09:56:20;99379.58;;;5.76;85.96
56789;BME280;42657;51.650;17.780;2022-12-24T09:59:38;99383.52;;;5.75;85.92
56789;BME280;42657;51.650;17.780;2022-12-24T10:02:41;99389.52;;;5.79;86.10
56789;BME280;42657;51.650;17.780;2022-12-24T10:05:50;99391.15;;;5.82;86.03
56789;BME280;42657;51.650;17.780;2022-12-24T10:12:37;99403.27;;;5.88;85.87
56789;BME280;42657;51.650;17.780;2022-12-24T10:15:56;99407.53;;;5.92;85.82
56789;BME280;42657;51.650;17.780;2022-12-24T10:19:48;99416.98;;;5.94;85.81
56789;BME280;42657;51.650;17.780;2022-12-24T10:23:32;99427.77;;;6.02;85.67
56789;BME280;42657;51.650;17.780;2022-12-24T10:27:12;99429.13;;;6.09;85.67
56789;BME280;42657;51.650;17.780;2022-12-24T10:30:17;99436.90;;;6.10;85.74
56789;BME280;42657;51.650;17.780;2022-12-24T10:33:30;99440.17;;;6.11;85.61
56789;BME280;42657;51.650;17.780;2022-12-24T10:36:33;99447.99;;;6.08;85.44
56789;BME280;42657;51.650;17.780;2022-12-24T10:39:34;99454.06;;;6.01;85.33
56789;BME280;42657;51.650;17.780;2022-12-24T10:42:40;99454.86;;;5.96;85.50
56789;BME280;42657;51.650;17.780;2022-12-24T10:45:46;99455.21;;;5.98;85.66
56789;BME280;42657;51.650;17.780;2022-12-24T10:49:01;99462.02;;;6.00;85.52
56789;BME280;42657;51.650;17.780;2022-12-24T10:52:12;99463.34;;;6.03;85.64
56789;BME280;42657;51.650;17.780;2022-12-24T10:58:19;99479.12;;;6.03;85.39
56789;BME280;42657;51.650;17.780;2022-12-24T11:01:42;99482.40;;;6.01;85.33
56789;BME280;42657;51.650;17.780;2022-12-24T11:04:47;99485.91;;;6.03;85.40
56789;BME280;42657;51.650;17.780;2022-12-24T11:08:02;99485.02;;;5.99;85.32
56789;BME280;42657;51.650;17.780;2022-12-24T11:11:15;99490.46;;;5.98;85.25
56789;BME280;42657;51.650;17.780;2022-12-24T11:14:19;99492.74;;;6.02;85.36
56789;BME280;42657;51.650;17.780;2022-12-24T11:17:26;99495.05;;;6.03;85.37
56789;BME280;42657;51.650;17.780;2022-12-24T11:20:32;99502.00;;;6.02;85.23
56789;BME280;42657;51.650;17.780;2022-12-24T11:23:35;99501.54;;;6.04;85.47
56789;BME280;42657;51.650;17.780;2022-12-24T11:26:41;99504.16;;;6.08;85.56
56789;BME280;42657;51.650;17.780;2022-12-24T11:33:20;99506.92;;;6.18;85.36
56789;BME280;42657;51.650;17.780;2022-12-24T11:36:25;99513.09;;;6.19;85.40
56789;BME280;42657;51.650;17.780;2022-12-24T11:39:27;99513.98;;;6.17;85.05
56789;BME280;42657;51.650;17.780;2022-12-24T11:42:35;99513.01;;;6.17;85.06
56789;BME280;42657;51.650;17.780;2022-12-24T11:45:38;99520.86;;;6.16;84.83
56789;BME280;42657;51.650;17.780;2022-12-24T11:49:49;99528.95;;;6.17;84.85
56789;BME280;42657;51.650;17.780;2022-12-24T11:52:28;99533.73;;;6.16;84.63
56789;BME280;42657;51.650;17.780;2022-12-24T11:55:54;99541.50;;;6.13;84.76
56789;BME280;42657;51.650;17.780;2022-12-24T11:59:01;99553.65;;;6.16;84.88
56789;BME280;42657;51.650;17.780;2022-12-24T12:02:37;99558.52;;;6.17;84.98
56789;BME280;42657;51.650;17.780;2022-12-24T12:05:43;99557.59;;;6.26;84.93
56789;BME280;42657;51.650;17.780;2022-12-24T12:08:45;99560.48;;;6.34;85.05
56789;BME280;42657;51.650;17.780;2022-12-24T12:11:52;99570.02;;;6.35;84.72
56789;BME280;42657;51.650;17.780;2022-12-24T12:15:02;99572.80;;;6.31;84.77
56789;BME280;42657;51.650;17.780;2022-12-24T12:18:17;99578.48;;;6.20;84.48
56789;BME280;42657;51.650;17.780;2022-12-24T12:21:31;99577.19;;;6.13;84.69
56789;BME280;42657;51.650;17.780;2022-12-24T12:24:48;99577.38;;;6.10;84.63
56789;BME280;42657;51.650;17.780;2022-12-24T12:27:54;99581.66;;;6.11;84.98
56789;BME280;42657;51.650;17.780;2022-12-24T12:31:14;99585.28;;;6.13;84.87
56789;BME280;42657;51.650;17.780;2022-12-24T12:34:29;99593.58;;;6.14;84.89
56789;BME280;42657;51.650;17.780;2022-12-24T12:37:37;99600.59;;;6.11;84.88
56789;BME280;42657;51.650;17.780;2022-12-24T12:41:18;99606.79;;;6.02;84.62
56789;BME280;42657;51.650;17.780;2022-12-24T12:48:00;99610.77;;;5.82;84.90
56789;BME280;42657;51.650;17.780;2022-12-24T12:51:25;99618.80;;;5.80;85.16
56789;BME280;42657;51.650;17.780;2022-12-24T12:57:52;99629.14;;;5.82;85.18
56789;BME280;42657;51.650;17.780;2022-12-24T13:01:20;99634.66;;;5.80;85.15
56789;BME280;42657;51.650;17.780;2022-12-24T13:17:25;99650.42;;;5.85;85.34
56789;BME280;42657;51.650;17.780;2022-12-24T13:20:41;99654.84;;;5.90;85.50
56789;BME280;42657;51.650;17.780;2022-12-24T13:23:43;99654.69;;;5.91;85.48
56789;BME280;42657;51.650;17.780;2022-12-24T13:30:37;99656.70;;;5.86;85.29
56789;BME280;42657;51.650;17.780;2022-12-24T13:37:00;99668.17;;;5.88;85.47
56789;BME280;42657;51.650;17.780;2022-12-24T13:43:10;99677.15;;;5.91;85.35
56789;BME280;42657;51.650;17.780;2022-12-24T13:49:52;99677.59;;;5.88;85.23
56789;BME280;42657;51.650;17.780;2022-12-24T13:53:00;99682.45;;;5.82;85.18
56789;BME280;42657;51.650;17.780;2022-12-24T13:59:38;99687.56;;;5.81;85.63
56789;BME280;42657;51.650;17.780;2022-12-24T14:05:52;99686.77;;;5.81;85.65
56789;BME280;42657;51.650;17.780;2022-12-24T14:09:06;99687.93;;;5.84;85.59
56789;BME280;42657;51.650;17.780;2022-12-24T14:22:33;99700.03;;;5.87;85.69
56789;BME280;42657;51.650;17.780;2022-12-24T14:25:36;99706.52;;;5.88;85.63
56789;BME280;42657;51.650;17.780;2022-12-24T14:28:57;99709.04;;;5.89;85.67
56789;BME280;42657;51.650;17.780;2022-12-24T14:32:01;99712.67;;;5.91;85.62
56789;BME280;42657;51.650;17.780;2022-12-24T14:35:17;99710.11;;;5.91;85.57
56789;BME280;42657;51.650;17.780;2022-12-24T14:38:21;99712.90;;;5.93;85.62
56789;BME280;42657;51.650;17.780;2022-12-24T14:41:50;99723.17;;;5.93;85.68
56789;BME280;42657;51.650;17.780;2022-12-24T14:45:27;99724.71;;;5.92;85.61
56789;BME280;42657;51.650;17.780;2022-12-24T14:58:42;99731.86;;;5.84;85.59
56789;BME280;42657;51.650;17.780;2022-12-24T15:01:45;99741.36;;;5.84;85.82
56789;BME280;42657;51.650;17.780;2022-12-24T15:05:04;99741.50;;;5.83;85.71
56789;BME280;42657;51.650;17.780;2022-12-24T15:08:18;99748.85;;;5.82;85.83
56789;BME280;42657;51.650;17.780;2022-12-24T15:11:22;99753.84;;;5.80;85.94
56789;BME280;42657;51.650;17.780;2022-12-24T15:14:26;99759.81;;;5.81;85.92
56789;BME280;42657;51.650;17.780;2022-12-24T15:17:28;99765.12;;;5.85;85.95
56789;BME280;42657;51.650;17.780;2022-12-24T15:20:30;99770.32;;;5.86;85.79
56789;BME280;42657;51.650;17.780;2022-12-24T15:23:35;99775.55;;;5.85;85.80
56789;BME280;42657;51.650;17.780;2022-12-24T15:26:43;99778.33;;;5.85;85.87
56789;BME280;42657;51.650;17.780;2022-12-24T15:29:47;99786.76;;;5.81;85.87
56789;BME280;42657;51.650;17.780;2022-12-24T15:32:51;99787.34;;;5.79;85.88
56789;BME280;42657;51.650;17.780;2022-12-24T15:35:54;99796.83;;;5.73;85.90
56789;BME280;42657;51.650;17.780;2022-12-24T15:39:01;99806.70;;;5.70;86.05
56789;BME280;42657;51.650;17.780;2022-12-24T15:42:03;99808.33;;;5.69;85.91
56789;BME280;42657;51.650;17.780;2022-12-24T15:45:12;99815.52;;;5.65;85.85
56789;BME280;42657;51.650;17.780;2022-12-24T15:48:32;99814.52;;;5.61;85.98
56789;BME280;42657;51.650;17.780;2022-12-24T15:51:36;99814.45;;;5.59;86.07
56789;BME280;42657;51.650;17.780;2022-12-24T15:54:42;99815.23;;;5.61;86.30
56789;BME280;42657;51.650;17.780;2022-12-24T15:57:44;99819.56;;;5.64;86.22
56789;BME280;42657;51.650;17.780;2022-12-24T16:01:03;99821.05;;;5.66;86.37
56789;BME280;42657;51.650;17.780;2022-12-24T16:04:23;99824.28;;;5.69;86.19
56789;BME280;42657;51.650;17.780;2022-12-24T16:07:25;99827.94;;;5.70;86.23
56789;BME280;42657;51.650;17.780;2022-12-24T16:10:27;99826.16;;;5.70;86.13
56789;BME280;42657;51.650;17.780;2022-12-24T16:13:30;99826.52;;;5.69;86.11
56789;BME280;42657;51.650;17.780;2022-12-24T16:16:42;99829.39;;;5.66;86.13
56789;BME280;42657;51.650;17.780;2022-12-24T16:19:53;99831.04;;;5.66;86.13
56789;BME280;42657;51.650;17.780;2022-12-24T16:22:56;99834.09;;;5.68;86.22
56789;BME280;42657;51.650;17.780;2022-12-24T16:25:57;99839.41;;;5.70;86.19
56789;BME280;42657;51.650;17.780;2022-12-24T16:28:59;99840.39;;;5.68;86.42
56789;BME280;42657;51.650;17.780;2022-12-24T16:32:01;99836.63;;;5.65;86.39
56789;BME280;42657;51.650;17.780;2022-12-24T16:35:04;99846.56;;;5.64;86.23
56789;BME280;42657;51.650;17.780;2022-12-24T16:38:06;99851.98;;;5.65;86.41
56789;BME280;42657;51.650;17.780;2022-12-24T16:41:08;99852.45;;;5.65;86.33
56789;BME280;42657;51.650;17.780;2022-12-24T16:44:10;99858.86;;;5.64;86.32
56789;BME280;42657;51.650;17.780;2022-12-24T16:47:18;99862.20;;;5.63;86.13
56789;BME280;42657;51.650;17.780;2022-12-24T16:50:21;99869.87;;;5.64;86.35
56789;BME280;42657;51.650;17.780;2022-12-24T16:53:22;99875.61;;;5.63;86.28
56789;BME280;42657;51.650;17.780;2022-12-24T16:56:24;99880.26;;;5.57;86.60
56789;BME280;42657;51.650;17.780;2022-12-24T16:59:25;99887.52;;;5.55;86.69
56789;BME280;42657;51.650;17.780;2022-12-24T17:02:27;99889.70;;;5.54;86.71
56789;BME280;42657;51.650;17.780;2022-12-24T17:05:29;99889.96;;;5.54;86.75
56789;BME280;42657;51.650;17.780;2022-12-24T17:08:30;99895.88;;;5.51;86.90
56789;BME280;42657;51.650;17.780;2022-12-24T17:11:32;99908.46;;;5.49;87.07
56789;BME280;42657;51.650;17.780;2022-12-24T17:14:34;99905.18;;;5.49;87.10
56789;BME280;42657;51.650;17.780;2022-12-24T17:17:36;99915.69;;;5.48;87.18
56789;BME280;42657;51.650;17.780;2022-12-24T17:20:38;99919.89;;;5.47;87.16
56789;BME280;42657;51.650;17.780;2022-12-24T17:23:40;99922.32;;;5.46;87.32
56789;BME280;42657;51.650;17.780;2022-12-24T17:26:42;99916.68;;;5.47;87.14
56789;BME280;42657;51.650;17.780;2022-12-24T17:29:44;99921.27;;;5.47;87.12
56789;BME280;42657;51.650;17.780;2022-12-24T17:32:46;99921.00;;;5.47;87.33
56789;BME280;42657;51.650;17.780;2022-12-24T17:35:47;99919.95;;;5.45;87.31
56789;BME280;42657;51.650;17.780;2022-12-24T17:38:49;99928.88;;;5.42;87.22
56789;BME280;42657;51.650;17.780;2022-12-24T17:41:50;99937.66;;;5.41;87.38
56789;BME280;42657;51.650;17.780;2022-12-24T17:44:52;99950.08;;;5.40;87.39
56789;BME280;42657;51.650;17.780;2022-12-24T17:47:53;99950.52;;;5.38;87.45
56789;BME280;42657;51.650;17.780;2022-12-24T17:50:55;99951.41;;;5.39;87.63
56789;BME280;42657;51.650;17.780;2022-12-24T17:53:56;99954.61;;;5.42;87.57
56789;BME280;42657;51.650;17.780;2022-12-24T17:56:58;99957.62;;;5.44;87.78
56789;BME280;42657;51.650;17.780;2022-12-24T17:59:59;99960.59;;;5.46;87.77
56789;BME280;42657;51.650;17.780;2022-12-24T18:03:01;99959.27;;;5.47;87.80